createdAt,value
2022-10-11T00:04:35.599Z,6.68
2022-10-11T00:09:42.801Z,6.74
2022-10-11T00:14:48.487Z,6.79
2022-10-11T00:19:55.676Z,6.81
2022-10-11T00:25:05.573Z,6.82
2022-10-11T00:30:14.467Z,6.87
2022-10-11T00:35:22.307Z,6.91
2022-10-11T00:40:29.718Z,6.96
2022-10-11T00:46:26.469Z,6.93
2022-10-11T00:51:48.446Z,6.90
2022-10-11T00:56:59.484Z,6.94
2022-10-11T01:02:08.131Z,7.00
2022-10-11T01:07:16.170Z,7.01
2022-10-11T01:12:28.097Z,6.96
2022-10-11T01:17:42.592Z,6.91
2022-10-11T01:23:23.689Z,6.91
2022-10-11T01:28:43.666Z,6.95
2022-10-11T01:33:56.862Z,6.91
2022-10-11T01:39:11.784Z,6.80
2022-10-11T01:44:19.763Z,6.72
2022-10-11T01:49:27.386Z,6.73
2022-10-11T01:55:08.277Z,6.69
2022-10-11T02:00:17.826Z,6.58
2022-10-11T02:05:38.247Z,6.48
2022-10-11T02:10:49.974Z,6.44
2022-10-11T02:16:00.411Z,6.42
2022-10-11T02:21:11.081Z,6.39
2022-10-11T02:26:21.061Z,6.45
2022-10-11T02:31:29.278Z,6.48
2022-10-11T02:36:44.742Z,6.56
2022-10-11T02:41:57.208Z,6.62
2022-10-11T02:47:05.582Z,6.69
2022-10-11T02:52:12.736Z,6.77
2022-10-11T02:57:19.984Z,6.85
2022-10-11T03:02:25.712Z,6.93
2022-10-11T03:07:32.649Z,7.00
2022-10-11T03:12:38.512Z,7.06
2022-10-11T03:17:45.512Z,7.12
2022-10-11T03:22:52.792Z,7.21
2022-10-11T03:28:00.099Z,7.29
2022-10-11T03:33:05.800Z,7.28
2022-10-11T03:38:16.612Z,7.25
2022-10-11T03:43:23.899Z,7.23
2022-10-11T03:48:31.193Z,7.29
2022-10-11T03:53:39.254Z,7.36
2022-10-11T03:58:46.459Z,7.42
2022-10-11T04:03:51.703Z,7.47
2022-10-11T04:08:58.895Z,7.52
2022-10-11T04:14:06.213Z,7.58
2022-10-11T04:19:13.827Z,7.63
2022-10-11T04:24:21.403Z,7.71
2022-10-11T04:29:32.618Z,7.80
2022-10-11T04:34:40.230Z,7.89
2022-10-11T04:39:47.494Z,7.97
2022-10-11T04:44:54.487Z,8.05
2022-10-11T04:50:05.163Z,8.12
2022-10-11T04:55:13.343Z,8.20
2022-10-11T05:00:22.307Z,8.26
2022-10-11T05:05:30.087Z,8.34
2022-10-11T05:10:37.501Z,8.43
2022-10-11T05:15:44.815Z,8.47
2022-10-11T05:20:51.550Z,8.48
2022-10-11T05:25:59.337Z,8.54
2022-10-11T05:31:07.631Z,8.60
2022-10-11T05:36:15.477Z,8.63
2022-10-11T05:41:22.684Z,8.66
2022-10-11T05:46:30.205Z,8.70
2022-10-11T05:51:37.480Z,8.77
2022-10-11T05:56:44.608Z,8.84
2022-10-11T06:01:52.094Z,8.94
2022-10-11T06:07:00.147Z,9.01
2022-10-11T06:12:10.048Z,9.07
2022-10-11T06:17:17.926Z,9.13
2022-10-11T06:22:25.650Z,9.20
2022-10-11T06:27:32.940Z,9.28
2022-10-11T06:32:43.422Z,9.41
2022-10-11T06:37:51.645Z,9.56
2022-10-11T06:42:58.693Z,9.67
2022-10-11T06:48:07.625Z,9.78
2022-10-11T06:53:15.306Z,9.90
2022-10-11T06:58:22.420Z,10.04
2022-10-11T07:03:29.553Z,10.18
2022-10-11T07:08:37.959Z,10.30
2022-10-11T07:13:45.583Z,10.39
2022-10-11T07:19:00.251Z,10.47
2022-10-11T07:24:09.645Z,10.60
2022-10-11T07:29:17.456Z,10.76
2022-10-11T07:34:25.137Z,10.85
2022-10-11T07:39:32.560Z,10.86
2022-10-11T07:44:39.712Z,10.85
2022-10-11T07:49:47.114Z,10.89
2022-10-11T07:54:54.098Z,10.91
2022-10-11T08:00:01.155Z,10.93
2022-10-11T08:05:09.819Z,10.95
2022-10-11T08:10:19.125Z,10.98
2022-10-11T08:15:27.165Z,11.01
2022-10-11T08:20:34.917Z,11.04
2022-10-11T08:25:45.350Z,11.08
2022-10-11T08:30:54.578Z,11.09
2022-10-11T08:36:05.280Z,11.11
2022-10-11T08:41:32.018Z,11.15
2022-10-11T08:46:41.639Z,11.25
2022-10-11T08:51:52.662Z,11.32
2022-10-11T08:56:59.888Z,11.39
2022-10-11T09:02:21.285Z,11.48
2022-10-11T09:07:43.603Z,11.61
2022-10-11T09:12:59.414Z,11.76
2022-10-11T09:18:31.043Z,11.92
2022-10-11T09:23:55.024Z,12.06
2022-10-11T09:29:11.859Z,12.17
2022-10-11T09:34:20.095Z,12.28
2022-10-11T09:39:33.747Z,12.44
2022-10-11T09:44:42.997Z,12.65
2022-10-11T09:49:55.639Z,12.85
2022-10-11T09:55:04.386Z,13.10
2022-10-11T10:00:25.126Z,13.29
2022-10-11T10:05:34.065Z,13.47
2022-10-11T10:10:44.600Z,13.63
2022-10-11T10:15:54.678Z,13.74
2022-10-11T10:21:03.015Z,13.83
2022-10-11T10:26:17.893Z,13.94
2022-10-11T10:31:40.257Z,14.02
2022-10-11T10:37:05.256Z,14.11
2022-10-11T10:42:17.963Z,14.15
2022-10-11T10:47:43.667Z,14.19
2022-10-11T10:53:04.166Z,14.25
2022-10-11T10:58:26.668Z,14.35
2022-10-11T11:03:45.001Z,14.44
2022-10-11T11:09:03.161Z,14.52
2022-10-11T11:14:24.104Z,14.67
2022-10-11T11:19:46.664Z,14.87
2022-10-11T11:25:06.915Z,15.00
2022-10-11T11:30:20.883Z,15.02
2022-10-11T11:35:34.691Z,15.03
2022-10-11T11:40:46.290Z,15.13
2022-10-11T11:45:58.392Z,15.21
2022-10-11T11:51:11.749Z,15.20
2022-10-11T11:56:30.718Z,15.12
2022-10-11T12:01:44.722Z,15.05
2022-10-11T12:07:15.902Z,15.01
2022-10-11T12:12:34.316Z,14.99
2022-10-11T12:18:17.858Z,14.95
2022-10-11T12:23:47.503Z,14.89
2022-10-11T12:29:29.226Z,14.88
2022-10-11T12:39:54.797Z,14.88
2022-10-11T12:45:34.767Z,14.85
2022-10-11T12:50:51.698Z,14.82
2022-10-11T12:56:05.720Z,14.77
2022-10-11T13:01:19.265Z,14.82
2022-10-11T13:06:30.289Z,14.83
2022-10-11T13:11:41.796Z,14.74
2022-10-11T13:17:00.169Z,14.57
2022-10-11T13:22:17.185Z,14.37
2022-10-11T13:27:27.561Z,14.17
2022-10-11T13:32:37.324Z,14.02
2022-10-11T13:37:47.859Z,13.87
2022-10-11T13:42:56.610Z,13.78
2022-10-11T13:48:03.996Z,13.67
2022-10-11T13:53:26.212Z,13.61
2022-10-11T13:58:38.988Z,13.57
2022-10-11T14:03:50.626Z,13.50
2022-10-11T14:09:00.325Z,13.46
2022-10-11T14:14:41.660Z,13.42
2022-10-11T14:20:08.738Z,13.38
2022-10-11T14:25:18.879Z,13.37
2022-10-11T14:30:28.164Z,13.36
2022-10-11T14:35:36.519Z,13.36
2022-10-11T14:40:44.001Z,13.40
2022-10-11T14:45:51.742Z,13.42
2022-10-11T14:51:02.771Z,13.42
2022-10-11T14:56:11.126Z,13.41
2022-10-11T15:01:19.808Z,13.47
2022-10-11T15:06:31.615Z,13.48
2022-10-11T15:11:40.052Z,13.41
2022-10-11T15:16:47.701Z,13.34
2022-10-11T15:21:55.278Z,13.29
2022-10-11T15:27:02.655Z,13.24
2022-10-11T15:32:34.492Z,13.16
2022-10-11T15:37:41.849Z,13.05
2022-10-11T15:42:50.440Z,12.95
2022-10-11T15:47:58.377Z,12.83
2022-10-11T15:53:09.477Z,12.72
2022-10-11T15:58:18.645Z,12.62
2022-10-11T16:03:27.429Z,12.53
2022-10-11T16:08:35.589Z,12.44
2022-10-11T16:13:42.997Z,12.33
2022-10-11T16:18:52.468Z,12.26
2022-10-11T16:23:59.676Z,12.18
2022-10-11T16:29:06.962Z,12.06
2022-10-11T16:34:14.022Z,11.97
2022-10-11T16:39:21.592Z,11.85
2022-10-11T16:44:28.454Z,11.65
2022-10-11T16:49:35.487Z,11.51
2022-10-11T16:54:45.561Z,11.38
2022-10-11T16:59:52.975Z,11.18
2022-10-11T17:04:59.973Z,11.00
2022-10-11T17:10:09.380Z,10.93
2022-10-11T17:15:16.611Z,10.94
2022-10-11T17:20:23.806Z,10.97
2022-10-11T17:25:31.183Z,10.98
2022-10-11T17:30:41.262Z,10.95
2022-10-11T17:35:48.306Z,10.82
2022-10-11T17:41:02.287Z,10.57
2022-10-11T17:46:10.682Z,10.34
2022-10-11T17:51:19.987Z,10.11
2022-10-11T17:56:33.679Z,9.93
2022-10-11T18:01:44.513Z,9.83
2022-10-11T18:06:51.935Z,9.62
2022-10-11T18:11:59.260Z,9.45
2022-10-11T18:17:06.521Z,9.37
2022-10-11T18:22:13.895Z,9.36
2022-10-11T18:27:21.558Z,9.27
2022-10-11T18:32:29.207Z,9.17
2022-10-11T18:37:37.961Z,9.13
2022-10-11T18:42:45.614Z,8.98
2022-10-11T18:47:54.113Z,8.78
2022-10-11T18:53:01.262Z,8.58
2022-10-11T18:58:08.503Z,8.38
2022-10-11T19:03:15.667Z,8.26
2022-10-11T19:08:21.064Z,8.17
2022-10-11T19:13:28.552Z,8.03
2022-10-11T19:18:40.421Z,7.87
2022-10-11T19:23:52.518Z,7.76
2022-10-11T19:29:02.542Z,7.69
2022-10-11T19:34:10.575Z,7.65
2022-10-11T19:39:19.131Z,7.55
2022-10-11T19:44:26.214Z,7.41
2022-10-11T19:49:33.407Z,7.32
2022-10-11T19:54:41.292Z,7.24
2022-10-11T19:59:48.158Z,7.21
2022-10-11T20:04:55.354Z,7.24
2022-10-11T20:10:06.313Z,7.24
2022-10-11T20:15:15.506Z,7.12
2022-10-11T20:20:23.768Z,7.05
2022-10-11T20:25:31.881Z,6.98
2022-10-11T20:30:44.562Z,6.92
2022-10-11T20:36:02.860Z,6.88
2022-10-11T20:41:12.239Z,6.84
2022-10-11T20:46:21.403Z,6.84
2022-10-11T20:51:29.539Z,6.82
2022-10-11T20:56:38.011Z,6.76
2022-10-11T21:01:45.372Z,6.63
2022-10-11T21:06:53.103Z,6.57
2022-10-11T21:12:01.506Z,6.46
2022-10-11T21:17:08.838Z,6.35
2022-10-11T21:22:16.556Z,6.20
2022-10-11T21:27:25.001Z,6.13
2022-10-11T21:32:32.438Z,6.11
2022-10-11T21:37:40.011Z,6.12
2022-10-11T21:42:47.162Z,6.04
2022-10-11T21:47:52.480Z,5.99
2022-10-11T21:52:59.632Z,5.93
2022-10-11T21:58:09.661Z,5.74
2022-10-11T22:03:16.658Z,5.63
2022-10-11T22:08:24.437Z,5.52
2022-10-11T22:13:33.158Z,5.43
2022-10-11T22:18:42.705Z,5.42
2022-10-11T22:23:51.930Z,5.44
2022-10-11T22:29:00.114Z,5.44
2022-10-11T22:34:07.466Z,5.42
2022-10-11T22:39:14.640Z,5.39
2022-10-11T22:44:22.274Z,5.36
2022-10-11T22:49:29.451Z,5.32
2022-10-11T22:54:34.782Z,5.23
2022-10-11T22:59:41.952Z,5.18
2022-10-11T23:04:49.416Z,5.13
2022-10-11T23:09:56.939Z,5.09
2022-10-11T23:15:05.664Z,5.00
2022-10-11T23:20:27.927Z,4.89
2022-10-11T23:25:35.176Z,4.82
2022-10-11T23:30:43.753Z,4.77
2022-10-11T23:35:50.596Z,4.75
2022-10-11T23:40:58.058Z,4.65
2022-10-11T23:46:05.823Z,4.50
2022-10-11T23:51:11.467Z,4.39
2022-10-11T23:56:18.633Z,4.31
